createdAt,value
2023-03-31T00:00:34.845Z,10.40
2023-03-31T00:03:03.014Z,13.75
2023-03-31T00:05:29.897Z,12.43
2023-03-31T00:08:03.606Z,10.32
2023-03-31T00:10:33.650Z,8.57
2023-03-31T00:13:01.780Z,7.63
2023-03-31T00:15:29.373Z,9.27
2023-03-31T00:18:00.386Z,9.82
2023-03-31T00:20:27.242Z,14.38
2023-03-31T00:22:54.673Z,11.40
2023-03-31T00:25:21.470Z,8.95
2023-03-31T00:27:50.383Z,10.75
2023-03-31T00:30:17.010Z,7.93
2023-03-31T00:32:44.172Z,9.30
2023-03-31T00:35:11.641Z,7.32
2023-03-31T00:37:38.868Z,10.77
2023-03-31T00:40:12.055Z,8.88
2023-03-31T00:42:43.109Z,12.05
2023-03-31T00:45:15.628Z,8.30
2023-03-31T00:47:58.213Z,10.50
2023-03-31T00:50:36.029Z,13.00
2023-03-31T00:53:08.858Z,9.20
2023-03-31T00:55:41.429Z,13.82
2023-03-31T00:58:09.342Z,9.43
2023-03-31T01:00:36.152Z,9.45
2023-03-31T01:03:07.492Z,7.53
2023-03-31T01:06:10.517Z,8.75
2023-03-31T01:08:38.396Z,8.55
2023-03-31T01:11:09.332Z,11.40
2023-03-31T01:13:38.372Z,8.32
2023-03-31T01:16:05.241Z,9.55
2023-03-31T01:18:35.710Z,8.40
2023-03-31T01:21:35.989Z,9.95
2023-03-31T01:24:39.997Z,11.95
2023-03-31T01:27:41.344Z,11.75
2023-03-31T01:30:43.481Z,12.23
2023-03-31T01:33:32.794Z,8.30
2023-03-31T01:36:26.993Z,7.53
2023-03-31T01:39:23.903Z,7.60
2023-03-31T01:42:30.514Z,11.05
2023-03-31T01:45:22.565Z,7.20
2023-03-31T01:47:58.110Z,7.97
2023-03-31T01:50:49.825Z,10.05
2023-03-31T01:53:48.475Z,8.10
2023-03-31T01:56:28.968Z,7.80
2023-03-31T01:59:01.808Z,7.63
2023-03-31T02:01:47.497Z,12.05
2023-03-31T02:04:36.837Z,8.93
2023-03-31T02:07:09.040Z,8.18
2023-03-31T02:09:39.174Z,11.13
2023-03-31T02:12:09.812Z,9.10
2023-03-31T02:14:42.074Z,10.70
2023-03-31T02:17:18.089Z,9.27
2023-03-31T02:19:49.314Z,13.75
2023-03-31T02:22:19.741Z,7.68
2023-03-31T02:24:48.806Z,11.82
2023-03-31T02:27:18.253Z,10.55
2023-03-31T02:29:45.153Z,10.23
2023-03-31T02:32:20.560Z,11.27
2023-03-31T02:34:47.166Z,7.65
2023-03-31T02:37:14.534Z,9.27
2023-03-31T02:39:44.647Z,10.18
2023-03-31T02:42:11.699Z,10.38
2023-03-31T02:44:39.680Z,10.18
2023-03-31T02:47:08.652Z,10.13
2023-03-31T02:49:40.355Z,7.65
2023-03-31T02:52:39.370Z,7.57
2023-03-31T02:55:33.884Z,8.73
2023-03-31T02:58:24.936Z,9.95
2023-03-31T03:01:16.776Z,7.00
2023-03-31T03:04:04.336Z,11.43
2023-03-31T03:06:53.747Z,10.27
2023-03-31T03:09:57.635Z,7.55
2023-03-31T03:12:58.557Z,11.35
2023-03-31T03:15:36.822Z,12.82
2023-03-31T03:18:06.504Z,8.65
2023-03-31T03:20:34.206Z,11.32
2023-03-31T03:23:00.870Z,11.13
2023-03-31T03:25:27.807Z,9.88
2023-03-31T03:27:54.451Z,11.15
2023-03-31T03:30:21.544Z,11.23
2023-03-31T03:32:48.318Z,12.90
2023-03-31T03:35:15.686Z,9.77
2023-03-31T03:37:42.281Z,11.25
2023-03-31T03:40:10.399Z,12.65
2023-03-31T03:42:38.385Z,10.18
2023-03-31T03:45:05.579Z,10.00
2023-03-31T03:47:32.342Z,9.98
2023-03-31T03:49:58.983Z,10.70
2023-03-31T03:52:25.653Z,7.95
2023-03-31T03:54:52.258Z,8.43
2023-03-31T03:57:18.964Z,8.05
2023-03-31T03:59:45.928Z,9.07
2023-03-31T04:02:12.722Z,8.45
2023-03-31T04:04:39.584Z,6.68
2023-03-31T04:07:06.304Z,9.77
2023-03-31T04:09:32.918Z,12.20
2023-03-31T04:11:59.840Z,7.70
2023-03-31T04:14:26.480Z,11.90
2023-03-31T04:16:56.499Z,8.48
2023-03-31T04:19:25.842Z,10.70
2023-03-31T04:21:58.720Z,7.00
2023-03-31T04:24:30.755Z,10.35
2023-03-31T04:26:57.921Z,10.48
2023-03-31T04:29:26.544Z,8.38
2023-03-31T04:31:58.578Z,9.40
2023-03-31T04:34:35.728Z,8.13
2023-03-31T04:37:03.243Z,9.50
2023-03-31T04:39:30.761Z,9.45
2023-03-31T04:42:01.343Z,9.90
2023-03-31T04:44:28.639Z,7.22
2023-03-31T04:46:55.940Z,9.63
2023-03-31T04:49:22.945Z,10.20
2023-03-31T04:51:49.623Z,12.40
2023-03-31T04:54:16.708Z,8.25
2023-03-31T04:56:43.692Z,8.68
2023-03-31T04:59:11.009Z,9.18
2023-03-31T05:01:37.679Z,10.85
2023-03-31T05:04:05.434Z,7.82
2023-03-31T05:06:32.380Z,11.30
2023-03-31T05:08:59.249Z,7.50
2023-03-31T05:11:26.370Z,9.20
2023-03-31T05:13:53.179Z,7.65
2023-03-31T05:16:19.831Z,10.68
2023-03-31T05:18:46.464Z,7.93
2023-03-31T05:21:16.184Z,11.20
2023-03-31T05:23:43.339Z,8.25
2023-03-31T05:26:10.816Z,6.40
2023-03-31T05:28:37.863Z,8.10
2023-03-31T05:31:06.018Z,6.22
2023-03-31T05:33:33.437Z,7.82
2023-03-31T05:36:00.621Z,10.63
2023-03-31T05:38:31.645Z,9.18
2023-03-31T05:40:58.477Z,9.77
2023-03-31T05:43:25.316Z,9.57
2023-03-31T05:45:52.324Z,9.90
2023-03-31T05:48:19.144Z,8.90
2023-03-31T05:50:46.872Z,9.45
2023-03-31T05:53:13.529Z,11.57
2023-03-31T05:55:40.481Z,8.35
2023-03-31T05:58:07.060Z,9.48
2023-03-31T06:00:34.039Z,11.23
2023-03-31T06:03:00.814Z,8.48
2023-03-31T06:05:27.861Z,10.77
2023-03-31T06:07:54.603Z,12.13
2023-03-31T06:10:21.224Z,13.05
2023-03-31T06:12:47.862Z,9.68
2023-03-31T06:15:14.567Z,13.38
2023-03-31T06:17:41.400Z,14.70
2023-03-31T06:20:23.989Z,12.88
2023-03-31T06:22:54.193Z,12.85
2023-03-31T06:25:21.702Z,14.05
2023-03-31T06:27:48.348Z,14.05
2023-03-31T06:30:15.238Z,15.55
2023-03-31T06:32:42.429Z,15.52
2023-03-31T06:35:09.408Z,16.10
2023-03-31T06:37:36.082Z,16.80
2023-03-31T06:40:02.905Z,16.33
2023-03-31T06:42:29.521Z,13.40
2023-03-31T06:44:56.315Z,13.07
2023-03-31T06:47:22.979Z,16.35
2023-03-31T06:49:49.741Z,15.85
2023-03-31T06:52:16.421Z,15.70
2023-03-31T06:54:43.285Z,16.02
2023-03-31T06:57:10.004Z,17.75
2023-03-31T06:59:36.937Z,16.48
2023-03-31T07:02:04.262Z,13.52
2023-03-31T07:04:31.071Z,14.73
2023-03-31T07:06:59.255Z,15.85
2023-03-31T07:09:26.004Z,14.95
2023-03-31T07:11:52.708Z,15.13
2023-03-31T07:14:20.050Z,15.05
2023-03-31T07:16:47.288Z,19.50
2023-03-31T07:19:15.435Z,14.02
2023-03-31T07:21:42.128Z,15.38
2023-03-31T07:24:08.703Z,14.43
2023-03-31T07:26:35.388Z,13.38
2023-03-31T07:29:02.003Z,15.88
2023-03-31T07:31:28.710Z,13.20
2023-03-31T07:33:55.425Z,12.07
2023-03-31T07:36:22.351Z,12.07
2023-03-31T07:38:49.667Z,12.50
2023-03-31T07:41:20.821Z,12.98
2023-03-31T07:43:48.072Z,10.55
2023-03-31T07:46:16.991Z,11.05
2023-03-31T07:48:44.023Z,9.73
2023-03-31T07:51:10.624Z,11.68
2023-03-31T07:53:37.358Z,11.55
2023-03-31T07:56:04.162Z,11.70
2023-03-31T07:58:31.047Z,11.98
2023-03-31T08:00:57.867Z,11.55
2023-03-31T08:03:24.470Z,11.27
2023-03-31T08:05:55.231Z,13.23
2023-03-31T08:08:22.452Z,11.43
2023-03-31T08:10:49.068Z,11.10
2023-03-31T08:13:16.232Z,9.50
2023-03-31T08:15:42.982Z,11.38
2023-03-31T08:18:09.806Z,10.98
2023-03-31T08:20:36.597Z,12.57
2023-03-31T08:23:05.379Z,11.05
2023-03-31T08:25:32.012Z,12.57
2023-03-31T08:27:58.586Z,10.38
2023-03-31T08:30:25.686Z,9.38
2023-03-31T08:32:52.394Z,9.07
2023-03-31T08:35:19.097Z,10.13
2023-03-31T08:37:45.914Z,9.60
2023-03-31T08:40:20.826Z,9.48
2023-03-31T08:42:52.845Z,9.63
2023-03-31T08:45:27.706Z,8.00
2023-03-31T08:47:59.164Z,10.43
2023-03-31T08:50:30.535Z,9.45
2023-03-31T08:53:05.801Z,10.35
2023-03-31T08:55:53.895Z,7.75
2023-03-31T08:58:45.457Z,8.15
2023-03-31T09:01:29.250Z,10.70
2023-03-31T09:04:30.035Z,8.13
2023-03-31T09:07:02.758Z,8.75
2023-03-31T09:09:53.982Z,9.60
2023-03-31T09:12:23.359Z,10.23
2023-03-31T09:15:01.168Z,9.75
2023-03-31T09:17:47.387Z,8.68
2023-03-31T09:20:17.253Z,9.52
2023-03-31T09:22:50.836Z,11.32
2023-03-31T09:25:26.156Z,8.88
2023-03-31T09:27:56.514Z,12.10
2023-03-31T09:30:30.565Z,10.05
2023-03-31T09:33:17.971Z,8.40
2023-03-31T09:35:46.466Z,10.88
2023-03-31T09:38:16.146Z,9.25
2023-03-31T09:40:43.703Z,7.18
2023-03-31T09:43:26.502Z,9.48
2023-03-31T09:46:08.624Z,9.70
2023-03-31T09:48:37.497Z,7.30
2023-03-31T09:51:13.481Z,8.60
2023-03-31T09:53:42.800Z,8.07
2023-03-31T09:56:11.372Z,5.60
2023-03-31T09:58:43.184Z,7.07
2023-03-31T10:01:12.319Z,6.60
2023-03-31T10:04:08.956Z,6.10
2023-03-31T10:06:42.284Z,5.82
2023-03-31T10:09:11.209Z,6.55
2023-03-31T10:11:38.104Z,5.85
2023-03-31T10:14:13.368Z,3.38
2023-03-31T10:16:53.492Z,5.10
2023-03-31T10:19:25.265Z,7.60
2023-03-31T10:21:58.497Z,6.47
2023-03-31T10:24:27.744Z,7.90
2023-03-31T10:26:55.972Z,8.15
2023-03-31T10:29:33.299Z,6.72
2023-03-31T10:32:09.302Z,9.13
2023-03-31T10:34:41.672Z,6.75
2023-03-31T10:37:13.776Z,8.27
2023-03-31T10:39:41.038Z,6.80
2023-03-31T10:42:08.001Z,8.38
2023-03-31T10:44:37.778Z,8.23
2023-03-31T10:47:13.727Z,24.05
2023-03-31T10:49:42.071Z,12.25
2023-03-31T10:52:25.886Z,9.63
2023-03-31T10:54:59.490Z,8.82
2023-03-31T10:58:00.763Z,12.57
2023-03-31T11:00:38.765Z,18.02
2023-03-31T11:03:38.106Z,9.98
2023-03-31T11:06:32.584Z,8.02
2023-03-31T11:09:02.286Z,9.13
2023-03-31T11:11:59.626Z,7.90
2023-03-31T11:14:47.407Z,8.05
2023-03-31T11:17:29.139Z,6.97
2023-03-31T11:20:26.910Z,7.70
2023-03-31T11:23:22.300Z,9.00
2023-03-31T11:26:04.734Z,9.77
2023-03-31T11:29:03.598Z,5.57
2023-03-31T11:31:40.321Z,7.10
2023-03-31T11:34:19.003Z,13.55
2023-03-31T11:36:58.665Z,7.55
2023-03-31T11:39:50.597Z,6.55
2023-03-31T11:42:25.358Z,5.32
2023-03-31T11:44:58.189Z,4.97
2023-03-31T11:47:32.361Z,5.72
2023-03-31T11:50:12.553Z,6.03
2023-03-31T11:52:57.116Z,4.85
2023-03-31T11:55:27.409Z,4.65
2023-03-31T11:58:00.536Z,5.28
2023-03-31T12:00:32.719Z,6.72
2023-03-31T12:03:25.857Z,4.25
2023-03-31T12:05:58.997Z,5.35
2023-03-31T12:08:32.325Z,4.75
2023-03-31T12:11:22.496Z,6.25
2023-03-31T12:14:21.451Z,4.53
2023-03-31T12:17:12.994Z,3.00
2023-03-31T12:20:02.263Z,4.07
2023-03-31T12:22:36.314Z,4.90
2023-03-31T12:25:03.096Z,4.78
2023-03-31T12:27:38.291Z,5.38
2023-03-31T12:30:29.360Z,4.03
2023-03-31T12:33:01.388Z,4.40
2023-03-31T12:36:01.145Z,5.88
2023-03-31T12:38:34.022Z,4.65
2023-03-31T12:41:15.929Z,3.28
2023-03-31T12:44:12.470Z,5.70
2023-03-31T12:46:51.693Z,3.50
2023-03-31T12:49:32.335Z,4.00
2023-03-31T12:52:06.501Z,3.53
2023-03-31T12:54:53.979Z,3.50
2023-03-31T12:57:23.769Z,3.20
2023-03-31T13:00:08.088Z,3.60
2023-03-31T13:02:34.835Z,4.15
2023-03-31T13:05:37.296Z,3.50
2023-03-31T13:08:05.676Z,3.60
2023-03-31T13:10:33.364Z,3.30
2023-03-31T13:13:15.929Z,3.92
2023-03-31T13:15:55.508Z,3.70
2023-03-31T13:18:23.695Z,7.32
2023-03-31T13:23:37.408Z,3.60
2023-03-31T13:26:05.893Z,4.90
2023-03-31T13:28:39.002Z,3.63
2023-03-31T13:31:08.937Z,5.80
2023-03-31T13:33:37.366Z,5.30
2023-03-31T13:36:10.373Z,2.53
2023-03-31T13:39:12.395Z,2.53
2023-03-31T13:41:48.565Z,3.13
2023-03-31T13:44:27.142Z,2.05
2023-03-31T13:47:12.525Z,2.05
2023-03-31T13:50:18.200Z,5.30
2023-03-31T13:52:54.066Z,4.03
2023-03-31T13:55:39.040Z,4.47
2023-03-31T14:01:21.532Z,2.03
2023-03-31T14:03:59.903Z,3.97
2023-03-31T14:06:45.835Z,5.45
2023-03-31T14:09:35.013Z,5.72
2023-03-31T14:12:18.383Z,4.38
2023-03-31T14:14:45.261Z,4.43
2023-03-31T14:17:12.980Z,5.45
2023-03-31T14:19:42.425Z,5.07
2023-03-31T14:22:32.889Z,3.17
2023-03-31T14:25:20.820Z,3.13
2023-03-31T14:28:20.913Z,2.83
2023-03-31T14:31:06.085Z,3.45
2023-03-31T14:33:59.959Z,1.80
2023-03-31T14:36:47.964Z,1.55
2023-03-31T14:39:21.335Z,3.67
2023-03-31T14:41:56.842Z,2.97
2023-03-31T14:44:25.909Z,2.17
2023-03-31T14:46:52.663Z,2.42
2023-03-31T14:49:21.613Z,1.92
2023-03-31T14:51:48.763Z,2.53
2023-03-31T14:54:21.027Z,1.67
2023-03-31T14:56:51.865Z,2.40
2023-03-31T14:59:28.046Z,2.13
2023-03-31T15:01:58.167Z,2.25
2023-03-31T15:04:39.609Z,3.55
2023-03-31T15:07:08.865Z,3.28
2023-03-31T15:09:36.485Z,2.00
2023-03-31T15:12:08.214Z,2.22
2023-03-31T15:14:47.051Z,1.95
2023-03-31T15:17:29.103Z,1.35
2023-03-31T15:19:57.941Z,4.25
2023-03-31T15:22:27.565Z,4.68
2023-03-31T15:24:54.963Z,5.22
2023-03-31T15:27:45.693Z,3.30
2023-03-31T15:30:21.792Z,3.40
2023-03-31T15:32:48.569Z,2.15
2023-03-31T15:35:31.354Z,2.83
2023-03-31T15:37:59.984Z,2.97
2023-03-31T15:40:36.521Z,3.63
2023-03-31T15:43:24.493Z,3.97
2023-03-31T15:46:02.285Z,3.03
2023-03-31T15:48:37.559Z,3.40
2023-03-31T15:51:13.327Z,4.70
2023-03-31T15:53:49.244Z,4.28
2023-03-31T15:56:28.438Z,3.95
2023-03-31T15:59:00.883Z,4.80
2023-03-31T16:01:34.459Z,5.22
2023-03-31T16:04:06.547Z,6.97
2023-03-31T16:06:36.775Z,4.43
2023-03-31T16:09:11.806Z,4.45
2023-03-31T16:11:46.058Z,6.53
2023-03-31T16:14:33.258Z,6.22
2023-03-31T16:17:05.435Z,4.22
2023-03-31T16:19:44.473Z,3.78
2023-03-31T16:22:17.487Z,5.68
2023-03-31T16:24:44.303Z,5.47
2023-03-31T16:27:11.386Z,5.07
2023-03-31T16:29:38.678Z,5.20
2023-03-31T16:32:44.246Z,4.03
2023-03-31T16:35:11.549Z,4.03
2023-03-31T16:37:38.094Z,4.00
2023-03-31T16:40:06.070Z,7.15
2023-03-31T16:42:33.348Z,3.10
2023-03-31T16:45:13.864Z,5.45
2023-03-31T16:47:45.188Z,4.35
2023-03-31T16:50:15.272Z,4.60
2023-03-31T16:52:42.197Z,2.55
2023-03-31T16:55:09.855Z,3.95
2023-03-31T16:57:36.382Z,3.88
2023-03-31T17:00:04.017Z,4.68
2023-03-31T17:02:31.396Z,3.30
2023-03-31T17:05:06.225Z,4.07
2023-03-31T17:07:38.435Z,4.22
2023-03-31T17:10:06.685Z,2.58
2023-03-31T17:12:33.548Z,2.88
2023-03-31T17:15:01.024Z,3.83
2023-03-31T17:17:29.920Z,4.38
2023-03-31T17:19:57.423Z,2.88
2023-03-31T17:22:24.118Z,2.40
2023-03-31T17:24:56.856Z,2.92
2023-03-31T17:27:23.927Z,2.92
2023-03-31T17:29:50.534Z,3.10
2023-03-31T17:32:17.732Z,3.00
2023-03-31T17:34:44.978Z,4.88
2023-03-31T17:37:12.403Z,3.92
2023-03-31T17:39:39.408Z,3.67
2023-03-31T17:42:06.404Z,4.68
2023-03-31T17:44:33.096Z,3.08
2023-03-31T17:46:59.957Z,3.05
2023-03-31T17:49:27.160Z,4.25
2023-03-31T17:51:53.799Z,2.58
2023-03-31T17:54:21.610Z,3.67
2023-03-31T17:56:51.060Z,5.95
2023-03-31T17:59:18.948Z,5.60
2023-03-31T18:01:46.923Z,4.07
2023-03-31T18:04:14.979Z,3.28
2023-03-31T18:06:53.515Z,4.38
2023-03-31T18:09:20.462Z,3.95
2023-03-31T18:11:47.267Z,3.67
2023-03-31T18:14:14.489Z,4.82
2023-03-31T18:16:42.827Z,5.95
2023-03-31T18:19:20.832Z,5.90
2023-03-31T18:21:49.136Z,5.38
2023-03-31T18:24:27.282Z,5.05
2023-03-31T18:26:59.853Z,8.68
2023-03-31T18:29:29.701Z,5.03
2023-03-31T18:31:59.825Z,5.97
2023-03-31T18:34:27.326Z,6.75
2023-03-31T18:36:57.379Z,4.57
2023-03-31T18:39:23.994Z,8.40
2023-03-31T18:41:57.501Z,9.68
2023-03-31T18:44:27.035Z,5.95
2023-03-31T18:46:53.689Z,6.25
2023-03-31T18:49:33.586Z,4.78
2023-03-31T18:52:02.366Z,4.18
2023-03-31T18:54:34.699Z,7.15
2023-03-31T18:57:02.026Z,7.55
2023-03-31T18:59:28.622Z,6.40
2023-03-31T19:01:55.541Z,5.30
2023-03-31T19:04:22.156Z,5.07
2023-03-31T19:06:49.108Z,8.40
2023-03-31T19:09:15.851Z,5.22
2023-03-31T19:11:42.476Z,7.70
2023-03-31T19:14:09.058Z,6.72
2023-03-31T19:16:41.855Z,6.95
2023-03-31T19:19:09.121Z,6.45
2023-03-31T19:21:37.338Z,4.35
2023-03-31T19:24:05.341Z,7.30
2023-03-31T19:26:32.019Z,5.25
2023-03-31T19:28:58.928Z,5.70
2023-03-31T19:31:25.700Z,5.25
2023-03-31T19:33:52.458Z,6.18
2023-03-31T19:36:19.043Z,6.70
2023-03-31T19:38:45.764Z,6.47
2023-03-31T19:41:12.544Z,5.35
2023-03-31T19:43:39.195Z,5.82
2023-03-31T19:46:05.824Z,4.90
2023-03-31T19:48:33.634Z,5.85
2023-03-31T19:51:04.268Z,5.75
2023-03-31T19:53:31.548Z,1.98
2023-03-31T19:56:09.755Z,1.40
2023-03-31T19:58:37.746Z,2.25
2023-03-31T20:01:07.746Z,2.90
2023-03-31T20:03:35.245Z,1.83
2023-03-31T20:06:07.117Z,2.60
2023-03-31T20:08:37.711Z,3.10
2023-03-31T20:11:07.212Z,2.45
2023-03-31T20:13:35.961Z,3.80
2023-03-31T20:16:06.511Z,2.67
2023-03-31T20:18:34.767Z,3.20
2023-03-31T20:21:06.233Z,3.35
2023-03-31T20:23:36.562Z,2.70
2023-03-31T20:26:07.110Z,3.88
2023-03-31T20:28:35.328Z,5.18
2023-03-31T20:31:15.336Z,4.45
2023-03-31T20:33:43.210Z,5.13
2023-03-31T20:36:12.088Z,4.35
2023-03-31T20:38:40.394Z,6.15
2023-03-31T20:41:11.855Z,5.35
2023-03-31T20:43:42.468Z,4.30
2023-03-31T20:46:11.030Z,7.35
2023-03-31T20:48:46.854Z,5.45
2023-03-31T20:51:22.808Z,8.35
2023-03-31T20:53:53.174Z,11.15
2023-03-31T20:56:30.937Z,13.45
2023-03-31T20:58:59.064Z,13.88
2023-03-31T21:01:32.991Z,10.00
2023-03-31T21:04:03.564Z,11.00
2023-03-31T21:06:59.954Z,10.38
2023-03-31T21:09:29.142Z,8.38
2023-03-31T21:11:57.474Z,8.65
2023-03-31T21:14:24.598Z,9.05
2023-03-31T21:16:51.273Z,6.68
2023-03-31T21:19:20.290Z,5.57
2023-03-31T21:22:01.507Z,7.45
2023-03-31T21:24:28.429Z,5.72
2023-03-31T21:26:55.192Z,4.93
2023-03-31T21:29:25.951Z,4.22
2023-03-31T21:31:52.744Z,4.78
2023-03-31T21:34:19.432Z,3.55
2023-03-31T21:36:52.612Z,3.63
2023-03-31T21:39:28.797Z,5.25
2023-03-31T21:41:58.855Z,3.63
2023-03-31T21:44:39.795Z,5.07
2023-03-31T21:47:06.518Z,6.93
2023-03-31T21:49:47.424Z,4.90
2023-03-31T21:52:14.023Z,7.88
2023-03-31T21:54:40.598Z,5.43
2023-03-31T21:57:09.964Z,8.68
2023-03-31T21:59:36.660Z,8.02
2023-03-31T22:02:06.994Z,9.10
2023-03-31T22:04:33.624Z,5.88
2023-03-31T22:07:00.235Z,7.97
2023-03-31T22:09:29.357Z,7.53
2023-03-31T22:11:58.631Z,7.25
2023-03-31T22:14:25.234Z,6.93
2023-03-31T22:16:53.826Z,8.27
2023-03-31T22:19:20.737Z,9.35
2023-03-31T22:21:49.869Z,7.97
2023-03-31T22:24:16.632Z,9.88
2023-03-31T22:26:43.282Z,8.73
2023-03-31T22:29:13.808Z,11.65
2023-03-31T22:31:40.533Z,8.77
2023-03-31T22:34:07.228Z,9.40
2023-03-31T22:36:34.153Z,9.15
2023-03-31T22:39:00.785Z,8.18
2023-03-31T22:41:27.963Z,7.47
2023-03-31T22:43:56.371Z,9.35
2023-03-31T22:46:23.393Z,7.05
2023-03-31T22:48:50.347Z,9.60
2023-03-31T22:51:17.374Z,10.02
2023-03-31T22:53:44.048Z,8.65
2023-03-31T22:56:12.113Z,7.90
2023-03-31T22:58:38.927Z,8.43
2023-03-31T23:01:09.998Z,8.95
2023-03-31T23:03:36.771Z,10.07
2023-03-31T23:06:05.126Z,8.75
2023-03-31T23:08:32.114Z,10.05
2023-03-31T23:11:00.673Z,8.23
2023-03-31T23:13:28.151Z,10.85
2023-03-31T23:15:55.151Z,10.88
2023-03-31T23:18:22.604Z,9.77
2023-03-31T23:20:49.503Z,9.77
2023-03-31T23:23:16.509Z,9.90
2023-03-31T23:25:43.260Z,11.30
2023-03-31T23:28:10.219Z,11.25
2023-03-31T23:30:36.877Z,12.35
2023-03-31T23:33:03.598Z,11.55
2023-03-31T23:35:31.384Z,13.48
2023-03-31T23:37:59.286Z,12.93
2023-03-31T23:40:26.572Z,13.15
2023-03-31T23:42:53.156Z,16.00
2023-03-31T23:45:19.750Z,14.68
2023-03-31T23:47:46.751Z,17.27
2023-03-31T23:50:13.642Z,16.50
2023-03-31T23:52:40.794Z,13.95
2023-03-31T23:55:10.746Z,16.65
2023-03-31T23:57:37.653Z,17.23
